Weather History for Walnut Ridge, AR

Change the Weather History Date:

Monday, September 16, 2013

  Actual Average Record
Temperature  
Mean Temperature 70 °F -  
Max Temperature 78 °F 79 °F 91 °F (1997)
Min Temperature 62 °F 58 °F 50 °F (2000)
Cooling Degree Days 5    
Growing Degree Days 20 (Base 50)    
Moisture  
Dew Point 63 °F    
Average Humidity 80    
Maximum Humidity 94    
Minimum Humidity 60    
Precipitation  
Precipitation 0.00 in - - ()
Sea Level Pressure  
Sea Level Pressure 30.15 in    
Wind  
Wind Speed 7 mph (NNE)    
Max Wind Speed 16 mph    
Max Gust Speed 16 mph    
Visibility 10 miles    
Events      
Averages and records for this station are not official NWS values.
T = Trace of Precipitation, MM = Missing Value Source: NWS Daily Summary

Daily Weather History Graph

Daily Weather History Graph

Search for Another Location

Airport:

Trip Planner

Search our weather history database for the weather conditions in past years. The results will help you decide how hot, cold, wet, or windy it might be!

Date:

Astronomy

Sep. 16, 2013 Rise Set
Actual Time 6:47 AM CDT 7:09 PM CDT
Civil Twilight 6:21 AM CDT 7:34 PM CDT
Nautical Twilight 5:51 AM CDT 8:04 PM CDT
Astronomical Twilight 5:20 AM CDT 8:35 PM CDT
Moon 5:14 PM CDT (9/16) 3:38 AM CDT (9/16)
Length of Visible Light 13h 13m
Length of Day
12h 21m
Waxing Gibbous, 90% of the Moon is Illuminated
Sep 16
Waxing Gibbous
Sep 19
Full
Sep 26
Last Quarter
Oct 4
New
Oct 11
First Quarter

Hourly Weather History & Observations

Time (CDT) Temp. Dew Point Humidity Pressure Visibility Wind Dir Wind Speed Gust Speed Precip Events Conditions
12:15 AM 66.2 °F 59.0 °F 78% 30.07 in 10.0 mi South 4.6 mph - N/A   Clear
12:35 AM 66.2 °F 57.2 °F 73% 30.07 in 10.0 mi South 4.6 mph - N/A   Clear
12:55 AM 66.2 °F 57.2 °F 73% 30.07 in 10.0 mi SSW 3.5 mph - N/A   Clear
1:15 AM 69.8 °F 55.4 °F 60% 30.08 in 10.0 mi WSW 4.6 mph - N/A   Clear
1:35 AM 66.2 °F 59.0 °F 78% 30.09 in 10.0 mi NNW 5.8 mph - N/A   Clear
1:55 AM 64.4 °F 60.8 °F 88% 30.08 in 10.0 mi NNW 3.5 mph - N/A   Clear
2:15 AM 64.4 °F 60.8 °F 88% 30.09 in 10.0 mi North 3.5 mph - N/A   Clear
2:35 AM 64.4 °F 60.8 °F 88% 30.09 in 10.0 mi North 3.5 mph - N/A   Clear
2:55 AM 64.4 °F 59.0 °F 83% 30.09 in 10.0 mi North 5.8 mph - N/A   Clear
3:15 AM 64.4 °F 59.0 °F 83% 30.09 in 10.0 mi NNE 4.6 mph - N/A   Clear
3:35 AM 62.6 °F 59.0 °F 88% 30.09 in 10.0 mi NE 6.9 mph - N/A   Clear
3:55 AM 62.6 °F 59.0 °F 88% 30.09 in 10.0 mi NE 5.8 mph - N/A   Clear
4:15 AM 62.6 °F 57.2 °F 82% 30.09 in 10.0 mi NE 6.9 mph - N/A   Clear
4:35 AM 62.6 °F 57.2 °F 82% 30.10 in 10.0 mi ENE 6.9 mph - N/A   Clear
4:55 AM 62.6 °F 57.2 °F 82% 30.10 in 10.0 mi East 4.6 mph - N/A   Clear
5:15 AM 62.6 °F 57.2 °F 82% 30.10 in 10.0 mi East 3.5 mph - N/A   Clear
5:35 AM 62.6 °F 57.2 °F 82% 30.11 in 10.0 mi North 6.9 mph - N/A   Clear
5:55 AM 62.6 °F 59.0 °F 88% 30.12 in 10.0 mi North 6.9 mph - N/A   Clear
6:15 AM 62.6 °F 59.0 °F 88% 30.12 in 10.0 mi NNE 4.6 mph - N/A   Clear
6:35 AM 62.6 °F 59.0 °F 88% 30.13 in 10.0 mi North 5.8 mph - N/A   Clear
6:55 AM 62.6 °F 59.0 °F 88% 30.14 in 10.0 mi North 4.6 mph - N/A   Scattered Clouds
7:15 AM 62.6 °F 59.0 °F 88% 30.15 in 10.0 mi North 6.9 mph - N/A   Overcast
7:35 AM 64.4 °F 59.0 °F 83% 30.15 in 10.0 mi NNE 6.9 mph - N/A   Scattered Clouds
7:55 AM 64.4 °F 59.0 °F 83% 30.16 in 10.0 mi NE 8.1 mph - N/A   Clear
8:15 AM 66.2 °F 60.8 °F 83% 30.16 in 10.0 mi NNE 8.1 mph - N/A   Clear
8:35 AM 66.2 °F 60.8 °F 83% 30.16 in 4.0 mi NNE 8.1 mph - N/A   Clear
8:55 AM 69.8 °F 64.4 °F 83% 30.16 in 10.0 mi NE 8.1 mph - N/A   Clear
9:15 AM 71.6 °F 64.4 °F 78% 30.17 in 10.0 mi ENE 9.2 mph - N/A   Clear
9:35 AM 73.4 °F 64.4 °F 73% 30.18 in 10.0 mi East 6.9 mph - N/A   Partly Cloudy
9:55 AM 73.4 °F 64.4 °F 73% 30.19 in 9.0 mi NNE 11.5 mph - N/A   Clear
10:15 AM 75.2 °F 66.2 °F 73% 30.19 in 10.0 mi NE 10.4 mph - N/A   Clear
10:35 AM 75.2 °F 64.4 °F 69% 30.19 in 9.0 mi NNE 6.9 mph - N/A   Clear
10:55 AM 75.2 °F 64.4 °F 69% 30.19 in 9.0 mi NE 5.8 mph - N/A   Clear
11:15 AM 77.0 °F 66.2 °F 69% 30.20 in 9.0 mi NE 5.8 mph - N/A   Clear
11:35 AM 78.8 °F 66.2 °F 65% 30.20 in 7.0 mi NNE 11.5 mph - N/A   Partly Cloudy
11:55 AM 77.0 °F 66.2 °F 69% 30.20 in 10.0 mi NNE 9.2 mph - N/A   Partly Cloudy
12:15 PM 78.8 °F 66.2 °F 65% 30.19 in 10.0 mi ENE 10.4 mph - N/A   Partly Cloudy
12:35 PM 78.8 °F 66.2 °F 65% 30.19 in 10.0 mi NE 9.2 mph - N/A   Clear
12:55 PM 78.8 °F 66.2 °F 65% 30.19 in 10.0 mi NE 11.5 mph - N/A   Clear
1:15 PM 78.8 °F 66.2 °F 65% 30.18 in 10.0 mi NE 12.7 mph 16.1 mph N/A   Partly Cloudy
1:36 PM 78.8 °F 66.2 °F 65% 30.18 in 10.0 mi NE 11.5 mph - N/A   Scattered Clouds
1:55 PM 77.0 °F 66.2 °F 69% 30.18 in 5.0 mi NNE 12.7 mph 16.1 mph N/A   Scattered Clouds
2:15 PM 77.0 °F 66.2 °F 69% 30.17 in 10.0 mi NE 15.0 mph - N/A   Partly Cloudy
2:35 PM 75.2 °F 66.2 °F 73% 30.16 in 10.0 mi NNE 12.7 mph - N/A   Mostly Cloudy
2:55 PM 75.2 °F 66.2 °F 73% 30.17 in 9.0 mi NNE 16.1 mph - N/A   Scattered Clouds
3:15 PM 73.4 °F 66.2 °F 78% 30.17 in 10.0 mi NNE 11.5 mph - N/A   Mostly Cloudy
3:35 PM 73.4 °F 66.2 °F 78% 30.16 in 10.0 mi NE 13.8 mph - N/A   Mostly Cloudy
3:56 PM 73.4 °F 66.2 °F 78% 30.17 in 10.0 mi NE 12.7 mph - N/A   Scattered Clouds
4:15 PM 73.4 °F 66.2 °F 78% 30.16 in 10.0 mi North 11.5 mph - N/A   Partly Cloudy
4:35 PM 73.4 °F 66.2 °F 78% 30.16 in 10.0 mi North 11.5 mph - N/A   Clear
4:56 PM 73.4 °F 66.2 °F 78% 30.16 in 10.0 mi NNE 11.5 mph - N/A   Clear
5:15 PM 73.4 °F 66.2 °F 78% 30.16 in 10.0 mi NNE 11.5 mph - N/A   Clear
5:35 PM 73.4 °F 66.2 °F 78% 30.15 in 10.0 mi NNE 13.8 mph - N/A   Partly Cloudy
5:55 PM 71.6 °F 64.4 °F 78% 30.15 in 10.0 mi NNE 10.4 mph - N/A   Clear
6:15 PM 71.6 °F 64.4 °F 78% 30.15 in 10.0 mi NNE 12.7 mph - N/A   Clear
6:35 PM 71.6 °F 64.4 °F 78% 30.14 in 10.0 mi NNE 10.4 mph - N/A   Clear
6:55 PM 71.6 °F 64.4 °F 78% 30.15 in 10.0 mi NNE 9.2 mph - N/A   Clear
7:15 PM 69.8 °F 64.4 °F 83% 30.16 in 10.0 mi NNE 11.5 mph - N/A   Clear
7:35 PM 69.8 °F 64.4 °F 83% 30.16 in 10.0 mi NNE 9.2 mph - N/A   Clear
7:55 PM 69.8 °F 64.4 °F 83% 30.16 in 10.0 mi NNE 9.2 mph - N/A   Clear
8:15 PM 68.0 °F 64.4 °F 88% 30.16 in 10.0 mi NNE 8.1 mph - N/A   Clear
8:36 PM 66.2 °F 64.4 °F 94% 30.17 in 10.0 mi NE 6.9 mph - N/A   Clear
8:55 PM 66.2 °F 62.6 °F 88% 30.17 in 10.0 mi NNE 5.8 mph - N/A   Clear
9:15 PM 66.2 °F 62.6 °F 88% 30.17 in 10.0 mi NNE 5.8 mph - N/A   Clear
9:35 PM 66.2 °F 62.6 °F 88% 30.17 in 10.0 mi NNE 4.6 mph - N/A   Clear
9:55 PM 66.2 °F 62.6 °F 88% 30.17 in 10.0 mi North 4.6 mph - N/A   Clear
10:15 PM 66.2 °F 62.6 °F 88% 30.18 in 10.0 mi North 5.8 mph - N/A   Clear
10:35 PM 66.2 °F 62.6 °F 88% 30.17 in 10.0 mi NNE 6.9 mph - N/A   Clear
10:56 PM 66.2 °F 62.6 °F 88% 30.18 in 10.0 mi North 6.9 mph - N/A   Clear
11:15 PM 66.2 °F 62.6 °F 88% 30.17 in 10.0 mi North 6.9 mph - N/A   Clear
11:35 PM 66.2 °F 62.6 °F 88% 30.17 in 10.0 mi North 8.1 mph - N/A   Clear
11:55 PM 64.4 °F 62.6 °F 94% 30.18 in 10.0 mi North 6.9 mph - N/A   Clear